Аэропорт: Актау. Актау

ICAO: UATE

METAR:
2020-06-02 09:00:00
UATE 020900Z 19005MPS 160V220 CAVOK 29/13 Q1006 R12/0///70 NOSIG RMK QFE753/1004
METAR:
2020-06-02 05:05:00
TAF UATE 020505Z 0206/0306 VRB03MPS CAVOK TX30/0209Z TN18/0302Z BECMG 0206/0208 20005MPS